createdAt,value
2022-12-19T00:00:37.163Z,79.60
2022-12-19T00:03:05.667Z,79.70
2022-12-19T00:05:37.970Z,79.50
2022-12-19T00:08:17.280Z,79.80
2022-12-19T00:10:57.301Z,79.70
2022-12-19T00:13:25.700Z,79.80
2022-12-19T00:15:54.123Z,79.80
2022-12-19T00:18:22.517Z,79.90
2022-12-19T00:21:01.198Z,79.80
2022-12-19T00:23:31.302Z,79.70
2022-12-19T00:26:10.284Z,79.70
2022-12-19T00:28:38.459Z,79.80
2022-12-19T00:31:06.977Z,79.70
2022-12-19T00:33:35.490Z,79.60
2022-12-19T00:36:08.500Z,79.90
2022-12-19T00:38:36.604Z,80.00
2022-12-19T00:41:10.241Z,80.00
2022-12-19T00:43:38.871Z,80.00
2022-12-19T00:46:08.963Z,79.80
2022-12-19T00:48:37.937Z,80.00
2022-12-19T00:51:07.964Z,80.00
2022-12-19T00:53:36.241Z,80.30
2022-12-19T00:56:05.151Z,80.20
2022-12-19T00:58:35.727Z,80.40
2022-12-19T01:01:07.028Z,80.40
2022-12-19T01:03:35.339Z,80.30
2022-12-19T01:06:03.576Z,80.40
2022-12-19T01:08:31.916Z,80.30
2022-12-19T01:11:00.641Z,80.50
2022-12-19T01:13:29.263Z,80.60
2022-12-19T01:16:03.800Z,80.40
2022-12-19T01:18:32.198Z,80.30
2022-12-19T01:21:01.995Z,80.30
2022-12-19T01:23:30.352Z,80.20
2022-12-19T01:25:59.225Z,79.90
2022-12-19T01:28:27.736Z,80.20
2022-12-19T01:31:00.204Z,80.20
2022-12-19T01:33:28.309Z,80.30
2022-12-19T01:35:56.471Z,80.30
2022-12-19T01:38:24.852Z,80.30
2022-12-19T01:40:54.847Z,80.50
2022-12-19T01:43:23.731Z,80.40
2022-12-19T01:45:57.188Z,80.30
2022-12-19T01:48:32.314Z,80.10
2022-12-19T01:51:02.867Z,80.50
2022-12-19T01:53:36.255Z,80.50
2022-12-19T01:56:13.105Z,80.50
2022-12-19T01:58:47.225Z,80.60
2022-12-19T02:01:19.346Z,80.60
2022-12-19T02:03:49.739Z,80.50
2022-12-19T02:06:18.519Z,80.40
2022-12-19T02:08:49.562Z,80.50
2022-12-19T02:11:17.751Z,80.50
2022-12-19T02:13:46.807Z,80.40
2022-12-19T02:16:29.040Z,80.40
2022-12-19T02:19:20.750Z,80.60
2022-12-19T02:21:56.340Z,80.50
2022-12-19T02:25:01.720Z,80.60
2022-12-19T02:28:03.958Z,80.60
2022-12-19T02:30:43.538Z,80.60
2022-12-19T02:33:18.776Z,80.50
2022-12-19T02:35:52.831Z,80.60
2022-12-19T02:38:28.288Z,80.70
2022-12-19T02:41:01.957Z,80.60
2022-12-19T02:43:32.991Z,80.60
2022-12-19T02:46:05.738Z,80.60
2022-12-19T02:48:35.343Z,80.60
2022-12-19T02:51:03.962Z,80.50
2022-12-19T02:53:32.360Z,80.40
2022-12-19T02:56:22.558Z,80.50
2022-12-19T02:59:06.652Z,80.70
2022-12-19T03:01:47.953Z,80.60
2022-12-19T03:04:32.872Z,80.60
2022-12-19T03:07:05.200Z,80.70
2022-12-19T03:09:42.017Z,80.60
2022-12-19T03:12:20.148Z,80.50
2022-12-19T03:14:49.976Z,80.80
2022-12-19T03:17:19.605Z,80.80
2022-12-19T03:19:47.849Z,80.80
2022-12-19T03:22:16.065Z,80.60
2022-12-19T03:24:44.296Z,80.60
2022-12-19T03:27:17.610Z,80.80
2022-12-19T03:29:51.423Z,80.80
2022-12-19T03:32:23.413Z,80.80
2022-12-19T03:34:55.031Z,80.80
2022-12-19T03:37:26.888Z,80.70
2022-12-19T03:39:59.501Z,80.80
2022-12-19T03:42:46.940Z,80.80
2022-12-19T03:45:19.829Z,80.80
2022-12-19T03:47:52.938Z,81.00
2022-12-19T03:50:22.003Z,80.90
2022-12-19T03:52:57.226Z,81.00
2022-12-19T03:55:30.291Z,80.80
2022-12-19T03:58:04.447Z,81.10
2022-12-19T04:00:35.834Z,81.00
2022-12-19T04:03:06.473Z,81.10
2022-12-19T04:05:35.988Z,80.90
2022-12-19T04:08:07.733Z,81.10
2022-12-19T04:10:40.778Z,81.00
2022-12-19T04:13:13.799Z,81.20
2022-12-19T04:15:50.637Z,81.10
2022-12-19T04:18:22.150Z,81.10
2022-12-19T04:20:56.169Z,81.10
2022-12-19T04:23:28.406Z,81.20
2022-12-19T04:26:01.161Z,81.00
2022-12-19T04:28:34.636Z,81.10
2022-12-19T04:31:03.919Z,81.10
2022-12-19T04:33:33.535Z,81.40
2022-12-19T04:36:01.744Z,81.40
2022-12-19T04:38:29.960Z,81.40
2022-12-19T04:41:01.571Z,81.40
2022-12-19T04:43:29.712Z,81.50
2022-12-19T04:45:57.997Z,81.50
2022-12-19T04:48:26.726Z,81.40
2022-12-19T04:50:56.768Z,81.50
2022-12-19T04:53:24.930Z,81.50
2022-12-19T04:56:00.794Z,81.40
2022-12-19T04:58:29.061Z,81.40
2022-12-19T05:01:01.137Z,81.30
2022-12-19T05:03:29.384Z,81.20
2022-12-19T05:06:07.247Z,81.40
2022-12-19T05:08:36.520Z,81.30
2022-12-19T05:11:06.680Z,81.30
2022-12-19T05:13:35.088Z,81.40
2022-12-19T05:16:06.327Z,81.40
2022-12-19T05:18:34.658Z,81.50
2022-12-19T05:21:03.006Z,81.40
2022-12-19T05:23:32.567Z,81.60
2022-12-19T05:26:01.505Z,81.40
2022-12-19T05:28:30.170Z,81.50
2022-12-19T05:31:05.313Z,81.60
2022-12-19T05:33:33.556Z,81.50
2022-12-19T05:36:01.945Z,81.40
2022-12-19T05:38:30.334Z,81.30
2022-12-19T05:41:00.008Z,81.50
2022-12-19T05:43:28.312Z,81.60
2022-12-19T05:45:56.514Z,81.50
2022-12-19T05:48:24.664Z,81.70
2022-12-19T05:50:52.817Z,81.50
2022-12-19T05:53:25.849Z,81.70
2022-12-19T05:56:08.874Z,81.60
2022-12-19T05:58:37.824Z,81.50
2022-12-19T06:01:06.764Z,81.60
2022-12-19T06:03:35.297Z,81.60
2022-12-19T06:06:04.984Z,81.80
2022-12-19T06:08:33.609Z,81.90
2022-12-19T06:11:02.717Z,81.60
2022-12-19T06:13:32.771Z,81.90
2022-12-19T06:16:01.946Z,82.00
2022-12-19T06:18:31.161Z,81.90
2022-12-19T06:21:00.678Z,81.80
2022-12-19T06:23:30.353Z,82.00
2022-12-19T06:25:58.721Z,81.80
2022-12-19T06:28:27.375Z,81.80
2022-12-19T06:30:59.011Z,81.90
2022-12-19T06:33:31.950Z,82.00
2022-12-19T06:36:00.832Z,82.00
2022-12-19T06:38:29.754Z,81.90
2022-12-19T06:41:15.810Z,81.90
2022-12-19T06:43:46.930Z,81.80
2022-12-19T06:46:18.768Z,81.90
2022-12-19T06:48:47.100Z,81.70
2022-12-19T06:51:15.709Z,81.80
2022-12-19T06:53:43.976Z,81.70
2022-12-19T06:56:17.305Z,81.70
2022-12-19T07:01:45.580Z,82.00
2022-12-19T07:04:17.957Z,82.00
2022-12-19T07:06:49.272Z,82.00
2022-12-19T07:09:18.302Z,82.10
2022-12-19T07:11:46.448Z,82.00
2022-12-19T07:14:14.674Z,82.20
2022-12-19T07:16:44.404Z,82.20
2022-12-19T07:19:12.944Z,82.20
2022-12-19T07:21:41.880Z,82.20
2022-12-19T07:24:11.255Z,82.10
2022-12-19T07:26:39.664Z,82.00
2022-12-19T07:29:08.513Z,82.10
2022-12-19T07:31:38.050Z,82.20
2022-12-19T07:34:07.704Z,82.20
2022-12-19T07:36:36.266Z,82.30
2022-12-19T07:39:04.644Z,82.00
2022-12-19T07:41:33.140Z,82.20
2022-12-19T07:44:02.052Z,82.30
2022-12-19T07:46:31.090Z,82.30
2022-12-19T07:48:59.235Z,82.50
2022-12-19T07:51:30.745Z,82.30
2022-12-19T07:53:59.226Z,82.20
2022-12-19T07:56:28.183Z,82.20
2022-12-19T07:58:56.386Z,82.30
2022-12-19T08:01:24.706Z,82.30
2022-12-19T08:03:56.685Z,82.20
2022-12-19T08:06:24.991Z,82.20
2022-12-19T08:08:54.534Z,82.20
2022-12-19T08:11:27.288Z,82.20
2022-12-19T08:13:57.480Z,82.10
2022-12-19T08:16:27.744Z,82.10
2022-12-19T08:18:58.464Z,82.30
2022-12-19T08:21:26.979Z,82.00
2022-12-19T08:23:56.598Z,82.10
2022-12-19T08:26:25.991Z,82.40
2022-12-19T08:28:55.628Z,82.40
2022-12-19T08:31:25.659Z,82.30
2022-12-19T08:33:54.989Z,82.30
2022-12-19T08:36:23.764Z,82.30
2022-12-19T08:38:52.603Z,82.30
2022-12-19T08:41:22.188Z,82.00
2022-12-19T08:43:51.475Z,82.10
2022-12-19T08:46:20.165Z,82.10
2022-12-19T08:48:48.492Z,82.00
2022-12-19T08:51:17.737Z,82.00
2022-12-19T08:53:47.455Z,81.80
2022-12-19T08:56:17.354Z,81.50
2022-12-19T08:58:50.106Z,81.50
2022-12-19T09:01:20.984Z,81.30
2022-12-19T09:05:14.004Z,81.30
2022-12-19T09:06:37.990Z,81.20
2022-12-19T09:09:06.827Z,81.00
2022-12-19T09:11:45.756Z,80.80
2022-12-19T09:14:21.080Z,80.80
2022-12-19T09:16:50.080Z,80.90
2022-12-19T09:19:18.404Z,80.70
2022-12-19T09:21:46.492Z,80.50
2022-12-19T09:24:14.705Z,80.50
2022-12-19T09:26:44.164Z,80.50
2022-12-19T09:29:19.779Z,80.60
2022-12-19T09:31:56.569Z,80.60
2022-12-19T09:34:33.479Z,80.60
2022-12-19T09:37:16.902Z,80.40
2022-12-19T09:39:49.582Z,80.50
2022-12-19T09:42:59.232Z,80.90
2022-12-19T09:45:42.340Z,81.10
2022-12-19T09:48:24.757Z,80.60
2022-12-19T09:51:09.435Z,80.60
2022-12-19T09:53:53.760Z,80.70
2022-12-19T09:56:25.111Z,80.70
2022-12-19T09:59:01.658Z,80.50
2022-12-19T10:01:36.246Z,80.60
2022-12-19T10:04:13.081Z,80.50
2022-12-19T10:07:16.373Z,80.50
2022-12-19T10:12:33.558Z,80.30
2022-12-19T10:12:52.305Z,80.10
2022-12-19T10:15:30.797Z,80.10
2022-12-19T10:18:20.094Z,80.10
2022-12-19T10:20:55.145Z,79.80
2022-12-19T10:24:05.819Z,79.90
2022-12-19T10:26:41.695Z,79.90
2022-12-19T10:29:40.016Z,79.90
2022-12-19T10:32:19.344Z,80.00
2022-12-19T10:34:48.837Z,79.80
2022-12-19T10:37:30.897Z,80.00
2022-12-19T10:40:15.662Z,79.80
2022-12-19T10:42:55.976Z,79.90
2022-12-19T10:45:33.833Z,79.60
2022-12-19T10:48:02.313Z,79.70
2022-12-19T10:50:31.543Z,80.00
2022-12-19T10:53:11.319Z,79.80
2022-12-19T10:55:44.135Z,79.70
2022-12-19T10:58:25.442Z,79.80
2022-12-19T11:01:13.328Z,80.00
2022-12-19T11:03:51.025Z,80.00
2022-12-19T11:06:46.169Z,79.60
2022-12-19T11:09:22.105Z,79.90
2022-12-19T11:14:44.277Z,80.20
2022-12-19T11:21:03.262Z,80.00
2022-12-19T11:23:46.417Z,80.20
2022-12-19T11:29:37.051Z,80.00
2022-12-19T11:29:43.776Z,80.20
2022-12-19T11:30:06.589Z,79.80
2022-12-19T11:30:45.893Z,79.90
2022-12-19T11:34:50.891Z,79.50
2022-12-19T11:37:26.361Z,79.60
2022-12-19T11:39:59.463Z,79.40
2022-12-19T11:42:34.087Z,79.30
2022-12-19T11:45:12.746Z,79.50
2022-12-19T11:47:45.343Z,79.60
2022-12-19T11:50:18.770Z,79.70
2022-12-19T11:53:04.169Z,79.60
2022-12-19T11:55:42.938Z,79.20
2022-12-19T11:58:13.222Z,79.20
2022-12-19T12:00:50.805Z,78.90
2022-12-19T12:04:02.035Z,78.70
2022-12-19T12:06:35.422Z,78.70
2022-12-19T12:14:25.276Z,78.40
2022-12-19T12:18:43.613Z,78.30
2022-12-19T12:25:31.647Z,78.10
2022-12-19T12:31:08.057Z,78.20
2022-12-19T12:31:11.703Z,78.00
2022-12-19T12:31:45.831Z,77.80
2022-12-19T12:31:49.684Z,77.90
2022-12-19T12:31:53.910Z,78.00
2022-12-19T12:35:56.312Z,77.80
2022-12-19T12:39:06.498Z,78.00
2022-12-19T12:42:02.829Z,77.90
2022-12-19T12:44:33.815Z,77.60
2022-12-19T12:47:11.630Z,77.80
2022-12-19T12:49:44.202Z,77.80
2022-12-19T12:52:19.477Z,77.70
2022-12-19T12:54:50.301Z,77.80
2022-12-19T12:57:35.847Z,77.70
2022-12-19T13:00:24.134Z,77.70
2022-12-19T13:02:57.893Z,77.50
2022-12-19T13:05:39.733Z,77.70
2022-12-19T13:08:28.833Z,77.60
2022-12-19T13:10:59.221Z,77.40
2022-12-19T13:13:49.921Z,77.30
2022-12-19T13:16:52.909Z,77.70
2022-12-19T13:19:28.891Z,77.80
2022-12-19T13:22:39.219Z,77.90
2022-12-19T13:25:48.426Z,77.80
2022-12-19T13:28:32.779Z,77.80
2022-12-19T13:31:22.521Z,78.00
2022-12-19T13:34:23.175Z,77.90
2022-12-19T13:39:48.418Z,77.60
2022-12-19T13:40:07.493Z,77.60
2022-12-19T13:43:09.595Z,77.60
2022-12-19T13:45:41.197Z,77.20
2022-12-19T13:48:17.629Z,77.40
2022-12-19T13:50:49.593Z,77.40
2022-12-19T13:53:19.193Z,77.60
2022-12-19T13:55:47.759Z,77.50
2022-12-19T13:58:28.923Z,77.90
2022-12-19T14:00:59.764Z,77.70
2022-12-19T14:03:35.470Z,77.80
2022-12-19T14:06:16.636Z,77.70
2022-12-19T14:09:46.210Z,77.40
2022-12-19T14:12:23.772Z,77.40
2022-12-19T14:14:48.293Z,77.50
2022-12-19T14:17:31.035Z,77.50
2022-12-19T14:20:06.744Z,77.50
2022-12-19T14:22:48.932Z,77.40
2022-12-19T14:28:15.474Z,77.60
2022-12-19T14:28:18.784Z,77.70
2022-12-19T14:31:00.617Z,77.60
2022-12-19T14:33:44.325Z,77.50
2022-12-19T14:36:26.089Z,77.80
2022-12-19T14:39:24.645Z,77.70
2022-12-19T14:42:06.581Z,77.80
2022-12-19T14:51:51.482Z,77.90
2022-12-19T14:52:35.249Z,77.90
2022-12-19T14:54:20.629Z,78.00
2022-12-19T14:54:48.467Z,78.30
2022-12-19T14:59:03.971Z,78.10
2022-12-19T15:01:35.294Z,78.10
2022-12-19T15:04:48.524Z,78.20
2022-12-19T15:07:09.860Z,78.40
2022-12-19T15:11:02.795Z,78.20
2022-12-19T15:14:51.986Z,78.40
2022-12-19T15:15:59.854Z,78.50
2022-12-19T15:18:30.230Z,78.40
2022-12-19T15:21:00.283Z,78.80
2022-12-19T15:23:29.204Z,78.90
2022-12-19T15:26:04.074Z,78.80
2022-12-19T15:28:39.418Z,78.90
2022-12-19T15:31:14.899Z,79.00
2022-12-19T15:34:00.176Z,78.90
2022-12-19T15:36:31.361Z,79.10
2022-12-19T15:38:59.907Z,79.10
2022-12-19T15:41:28.763Z,78.90
2022-12-19T15:44:04.027Z,79.20
2022-12-19T15:46:34.038Z,79.20
2022-12-19T15:49:03.266Z,79.50
2022-12-19T15:51:31.444Z,79.60
2022-12-19T15:54:15.592Z,79.70
2022-12-19T15:56:52.458Z,79.60
2022-12-19T15:59:36.377Z,80.00
2022-12-19T16:02:17.411Z,80.00
2022-12-19T16:04:48.094Z,80.00
2022-12-19T16:07:18.688Z,79.90
2022-12-19T16:09:47.273Z,79.80
2022-12-19T16:12:17.309Z,79.90
2022-12-19T16:14:49.628Z,80.00
2022-12-19T16:17:22.877Z,79.90
2022-12-19T16:19:52.190Z,80.10
2022-12-19T16:22:22.535Z,79.90
2022-12-19T16:24:50.990Z,80.30
2022-12-19T16:27:24.073Z,80.10
2022-12-19T16:29:56.819Z,80.30
2022-12-19T16:32:25.631Z,80.20
2022-12-19T16:34:54.397Z,80.20
2022-12-19T16:37:25.842Z,80.30
2022-12-19T16:39:58.688Z,80.10
2022-12-19T16:42:28.610Z,80.00
2022-12-19T16:44:58.153Z,80.00
2022-12-19T16:47:26.396Z,80.10
2022-12-19T16:49:54.729Z,80.30
2022-12-19T16:52:22.948Z,80.30
2022-12-19T16:54:51.288Z,80.20
2022-12-19T16:57:22.597Z,80.30
2022-12-19T16:59:52.021Z,80.40
2022-12-19T17:02:40.631Z,80.50
2022-12-19T17:05:15.281Z,80.50
2022-12-19T17:07:43.497Z,80.30
2022-12-19T17:10:12.365Z,80.30
2022-12-19T17:12:41.337Z,80.60
2022-12-19T17:15:25.564Z,80.20
2022-12-19T17:17:57.716Z,80.40
2022-12-19T17:20:29.719Z,80.60
2022-12-19T17:22:58.403Z,80.10
2022-12-19T17:25:28.850Z,80.30
2022-12-19T17:27:57.555Z,80.30
2022-12-19T17:30:25.867Z,80.30
2022-12-19T17:32:56.793Z,80.40
2022-12-19T17:35:29.010Z,80.40
2022-12-19T17:37:58.473Z,80.30
2022-12-19T17:40:29.361Z,80.50
2022-12-19T17:42:58.344Z,80.40
2022-12-19T17:45:28.259Z,80.50
2022-12-19T17:48:03.174Z,80.50
2022-12-19T17:50:35.823Z,80.40
2022-12-19T17:53:04.035Z,80.50
2022-12-19T17:55:37.095Z,80.40
2022-12-19T17:58:05.273Z,80.70
2022-12-19T18:00:37.744Z,80.50
2022-12-19T18:03:19.343Z,80.50
2022-12-19T18:05:51.120Z,80.40
2022-12-19T18:08:27.362Z,80.70
2022-12-19T18:10:57.956Z,80.70
2022-12-19T18:13:27.340Z,80.40
2022-12-19T18:15:58.637Z,80.90
2022-12-19T18:18:30.918Z,80.90
2022-12-19T18:21:01.568Z,80.90
2022-12-19T18:23:32.437Z,80.90
2022-12-19T18:26:02.334Z,80.90
2022-12-19T18:28:32.835Z,80.80
2022-12-19T18:31:03.353Z,81.00
2022-12-19T18:33:40.675Z,80.90
2022-12-19T18:36:16.242Z,80.80
2022-12-19T18:38:44.519Z,80.90
2022-12-19T18:41:13.549Z,80.90
2022-12-19T18:43:41.736Z,80.80
2022-12-19T18:46:15.322Z,80.90
2022-12-19T18:48:46.450Z,80.80
2022-12-19T18:51:17.705Z,80.80
2022-12-19T18:53:47.357Z,81.00
2022-12-19T18:56:16.274Z,81.20
2022-12-19T18:58:44.517Z,81.10
2022-12-19T19:01:16.593Z,81.30
2022-12-19T19:03:53.177Z,81.30
2022-12-19T19:06:23.271Z,81.20
2022-12-19T19:08:52.147Z,81.10
2022-12-19T19:11:26.233Z,81.10
2022-12-19T19:13:55.000Z,81.00
2022-12-19T19:16:25.764Z,80.90
2022-12-19T19:18:57.092Z,80.80
2022-12-19T19:21:28.572Z,81.00
2022-12-19T19:24:01.299Z,81.00
2022-12-19T19:26:29.461Z,81.10
2022-12-19T19:28:57.797Z,81.30
2022-12-19T19:31:29.124Z,81.30
2022-12-19T19:34:01.855Z,81.30
2022-12-19T19:36:32.080Z,81.50
2022-12-19T19:39:00.304Z,81.40
2022-12-19T19:41:30.025Z,81.40
2022-12-19T19:43:58.925Z,81.30
2022-12-19T19:46:27.722Z,81.10
2022-12-19T19:48:56.189Z,81.00
2022-12-19T19:51:25.962Z,80.90
2022-12-19T19:53:54.145Z,81.10
2022-12-19T19:56:22.300Z,81.00
2022-12-19T19:58:50.464Z,81.00
2022-12-19T20:01:18.756Z,81.10
2022-12-19T20:03:48.495Z,81.00
2022-12-19T20:06:16.822Z,81.10
2022-12-19T20:08:46.444Z,81.20
2022-12-19T20:11:14.804Z,81.20
2022-12-19T20:13:42.967Z,81.30
2022-12-19T20:16:13.364Z,81.30
2022-12-19T20:18:42.339Z,81.10
2022-12-19T20:21:13.382Z,81.20
2022-12-19T20:23:43.611Z,81.30
2022-12-19T20:26:15.602Z,81.30
2022-12-19T20:28:48.973Z,81.30
2022-12-19T20:31:18.930Z,81.40
2022-12-19T20:33:48.446Z,81.30
2022-12-19T20:36:17.186Z,81.30
2022-12-19T20:38:45.582Z,81.30
2022-12-19T20:41:15.447Z,81.10
2022-12-19T20:43:43.837Z,81.50
2022-12-19T20:46:14.488Z,81.60
2022-12-19T20:48:43.164Z,81.60
2022-12-19T20:51:12.013Z,81.70
2022-12-19T20:53:41.985Z,81.70
2022-12-19T20:56:12.978Z,81.80
2022-12-19T20:58:42.795Z,81.80
2022-12-19T21:01:12.960Z,81.70
2022-12-19T21:03:41.497Z,81.80
2022-12-19T21:06:11.941Z,82.00
2022-12-19T21:08:40.165Z,82.00
2022-12-19T21:11:09.887Z,82.00
2022-12-19T21:13:39.171Z,82.00
2022-12-19T21:16:12.160Z,82.10
2022-12-19T21:18:41.937Z,82.30
2022-12-19T21:21:13.406Z,82.20
2022-12-19T21:23:41.726Z,82.00
2022-12-19T21:26:10.278Z,81.90
2022-12-19T21:28:38.818Z,81.90
2022-12-19T21:31:13.840Z,81.80
2022-12-19T21:33:42.056Z,81.80
2022-12-19T21:36:12.162Z,81.70
2022-12-19T21:38:42.852Z,81.80
2022-12-19T21:41:18.573Z,81.60
2022-12-19T21:43:48.708Z,81.60
2022-12-19T21:46:19.043Z,81.70
2022-12-19T21:48:49.220Z,81.70
2022-12-19T21:51:19.771Z,81.60
2022-12-19T21:53:48.183Z,81.60
2022-12-19T21:56:23.956Z,81.50
2022-12-19T21:58:52.851Z,81.50
2022-12-19T22:01:22.658Z,81.60
2022-12-19T22:03:52.651Z,81.70
2022-12-19T22:06:28.230Z,81.70
2022-12-19T22:08:58.444Z,81.70
2022-12-19T22:11:29.078Z,81.80
2022-12-19T22:14:00.614Z,81.90
2022-12-19T22:16:31.944Z,82.10
2022-12-19T22:19:01.281Z,82.00
2022-12-19T22:21:31.240Z,82.00
2022-12-19T22:24:01.644Z,81.90
2022-12-19T22:26:35.510Z,82.00
2022-12-19T22:29:09.502Z,81.90
2022-12-19T22:31:41.261Z,81.90
2022-12-19T22:34:13.502Z,81.90
2022-12-19T22:36:44.867Z,81.90
2022-12-19T22:39:16.345Z,81.80
2022-12-19T22:41:46.627Z,81.80
2022-12-19T22:44:19.650Z,81.80
2022-12-19T22:46:51.273Z,81.70
2022-12-19T22:49:21.112Z,81.80
2022-12-19T22:51:50.670Z,81.80
2022-12-19T22:54:20.667Z,81.80
2022-12-19T22:56:52.531Z,81.80
2022-12-19T22:59:22.465Z,81.80
2022-12-19T23:01:54.611Z,81.80
2022-12-19T23:04:24.358Z,81.90
2022-12-19T23:06:53.269Z,81.90
2022-12-19T23:09:22.809Z,81.80
2022-12-19T23:11:53.053Z,81.70
2022-12-19T23:14:23.010Z,81.80
2022-12-19T23:16:54.367Z,82.00
2022-12-19T23:19:24.761Z,82.20
2022-12-19T23:21:54.653Z,82.20
2022-12-19T23:24:24.226Z,82.20
2022-12-19T23:26:56.238Z,82.00
2022-12-19T23:29:26.004Z,82.20
2022-12-19T23:31:57.315Z,82.10
2022-12-19T23:34:27.030Z,82.20
2022-12-19T23:37:12.797Z,82.20
2022-12-19T23:39:42.735Z,82.10
2022-12-19T23:42:12.391Z,82.10
2022-12-19T23:44:42.087Z,82.00
2022-12-19T23:47:13.521Z,82.00
2022-12-19T23:49:43.478Z,82.00
2022-12-19T23:52:13.306Z,82.30
2022-12-19T23:54:43.334Z,82.20
2022-12-19T23:57:13.044Z,82.10
2022-12-19T23:59:43.418Z,82.30
